Bromborough, United Kingdom
Current Conditions -  °F | °C
As of 5:50 PM on Friday 21 Nov 2014 (Local Time) from EGGP Reporting Station
Light Rain Light Rain  
Wind Chill: 40°   Ceiling: 1700
Heat Index: 46°   Visibility: 4mi
Dew Point: 45°   Wind: 14mph
Humidity: 93%   Direction: 130°SE
Pressure: 29.88"   Gusts: NA
Location:  53.33°N, 2.97°W
Report Text: EGGP 211750Z 13012KT 6000 -RA SCT010 BKN017 08/07 Q1012
Loading
Personal Weather Stations






























Interactive Weather Map New forecast layout! Learn more

10-Day Weather Forecast

Advertisements
Track Severe Weather on mobile